sensor_id;sensor_type;location;lat;lon;timestamp;temperature;humidity
12948;DHT22;6539;49.476;8.484;2024-01-07T00:01:27;5.80;99.90
12948;DHT22;6539;49.476;8.484;2024-01-07T00:04:15;5.70;99.90
12948;DHT22;6539;49.476;8.484;2024-01-07T00:07:04;5.80;99.90
12948;DHT22;6539;49.476;8.484;2024-01-07T00:09:50;5.80;99.90
12948;DHT22;6539;49.476;8.484;2024-01-07T00:12:37;5.80;99.90
12948;DHT22;6539;49.476;8.484;2024-01-07T00:15:23;5.80;99.90
12948;DHT22;6539;49.476;8.484;2024-01-07T00:18:12;5.80;99.90
12948;DHT22;6539;49.476;8.484;2024-01-07T00:20:58;5.80;99.90
12948;DHT22;6539;49.476;8.484;2024-01-07T00:23:44;5.80;99.90
12948;DHT22;6539;49.476;8.484;2024-01-07T00:26:30;5.80;99.90
12948;DHT22;6539;49.476;8.484;2024-01-07T00:29:16;5.70;99.90
12948;DHT22;6539;49.476;8.484;2024-01-07T00:32:05;5.70;99.90
12948;DHT22;6539;49.476;8.484;2024-01-07T00:34:52;5.70;99.90
12948;DHT22;6539;49.476;8.484;2024-01-07T00:37:40;5.60;99.90
12948;DHT22;6539;49.476;8.484;2024-01-07T00:40:26;5.70;99.90
12948;DHT22;6539;49.476;8.484;2024-01-07T00:43:12;5.70;99.90
12948;DHT22;6539;49.476;8.484;2024-01-07T00:45:58;5.70;99.90
12948;DHT22;6539;49.476;8.484;2024-01-07T00:48:46;5.70;99.90
12948;DHT22;6539;49.476;8.484;2024-01-07T00:51:35;5.60;99.90
12948;DHT22;6539;49.476;8.484;2024-01-07T00:54:21;5.70;99.90
12948;DHT22;6539;49.476;8.484;2024-01-07T00:57:10;5.70;99.90
12948;DHT22;6539;49.476;8.484;2024-01-07T00:59:59;5.60;99.90
12948;DHT22;6539;49.476;8.484;2024-01-07T01:02:48;5.70;99.90
12948;DHT22;6539;49.476;8.484;2024-01-07T01:05:37;5.70;99.90
12948;DHT22;6539;49.476;8.484;2024-01-07T01:08:25;5.70;99.90
12948;DHT22;6539;49.476;8.484;2024-01-07T01:11:14;5.70;99.90
12948;DHT22;6539;49.476;8.484;2024-01-07T01:14:05;5.60;99.90
12948;DHT22;6539;49.476;8.484;2024-01-07T01:16:51;5.60;99.90
12948;DHT22;6539;49.476;8.484;2024-01-07T01:19:37;5.60;99.90
12948;DHT22;6539;49.476;8.484;2024-01-07T01:22:23;5.60;99.90
12948;DHT22;6539;49.476;8.484;2024-01-07T01:25:10;5.60;99.90
12948;DHT22;6539;49.476;8.484;2024-01-07T01:27:59;5.60;99.90
12948;DHT22;6539;49.476;8.484;2024-01-07T01:30:45;5.60;99.90
12948;DHT22;6539;49.476;8.484;2024-01-07T01:33:34;5.60;99.90
12948;DHT22;6539;49.476;8.484;2024-01-07T01:36:20;5.60;99.90
12948;DHT22;6539;49.476;8.484;2024-01-07T01:39:06;5.60;99.90
12948;DHT22;6539;49.476;8.484;2024-01-07T01:41:52;5.70;99.90
12948;DHT22;6539;49.476;8.484;2024-01-07T01:44:39;5.70;99.90
12948;DHT22;6539;49.476;8.484;2024-01-07T01:47:29;5.70;99.90
12948;DHT22;6539;49.476;8.484;2024-01-07T01:50:18;5.60;99.90
12948;DHT22;6539;49.476;8.484;2024-01-07T01:53:05;5.60;99.90
12948;DHT22;6539;49.476;8.484;2024-01-07T01:55:51;5.60;99.90
12948;DHT22;6539;49.476;8.484;2024-01-07T01:58:38;5.60;99.90
12948;DHT22;6539;49.476;8.484;2024-01-07T02:01:30;5.60;99.90
12948;DHT22;6539;49.476;8.484;2024-01-07T02:04:19;5.60;99.90
12948;DHT22;6539;49.476;8.484;2024-01-07T02:07:08;5.60;99.90
12948;DHT22;6539;49.476;8.484;2024-01-07T02:09:55;5.60;99.90
12948;DHT22;6539;49.476;8.484;2024-01-07T02:12:41;5.60;99.90
12948;DHT22;6539;49.476;8.484;2024-01-07T02:15:30;5.60;99.90
12948;DHT22;6539;49.476;8.484;2024-01-07T02:18:17;5.50;99.90
12948;DHT22;6539;49.476;8.484;2024-01-07T02:21:07;5.50;99.90
12948;DHT22;6539;49.476;8.484;2024-01-07T02:23:54;5.60;99.90
12948;DHT22;6539;49.476;8.484;2024-01-07T02:26:40;5.50;99.90
12948;DHT22;6539;49.476;8.484;2024-01-07T02:29:26;5.50;99.90
12948;DHT22;6539;49.476;8.484;2024-01-07T02:32:12;5.50;99.90
12948;DHT22;6539;49.476;8.484;2024-01-07T02:34:58;5.60;99.90
12948;DHT22;6539;49.476;8.484;2024-01-07T02:37:45;5.50;99.90
12948;DHT22;6539;49.476;8.484;2024-01-07T02:40:31;5.50;99.90
12948;DHT22;6539;49.476;8.484;2024-01-07T02:43:17;5.50;99.90
12948;DHT22;6539;49.476;8.484;2024-01-07T02:46:03;5.50;99.90
12948;DHT22;6539;49.476;8.484;2024-01-07T02:48:49;5.50;99.90
12948;DHT22;6539;49.476;8.484;2024-01-07T02:51:35;5.60;99.90
12948;DHT22;6539;49.476;8.484;2024-01-07T02:54:23;5.50;99.90
12948;DHT22;6539;49.476;8.484;2024-01-07T02:57:09;5.50;99.90
12948;DHT22;6539;49.476;8.484;2024-01-07T03:00:01;5.50;99.90
12948;DHT22;6539;49.476;8.484;2024-01-07T03:02:48;5.50;99.90
12948;DHT22;6539;49.476;8.484;2024-01-07T03:05:38;5.60;99.90
12948;DHT22;6539;49.476;8.484;2024-01-07T03:08:24;5.60;99.90
12948;DHT22;6539;49.476;8.484;2024-01-07T03:11:14;5.50;99.90
12948;DHT22;6539;49.476;8.484;2024-01-07T03:14:03;5.50;99.90
12948;DHT22;6539;49.476;8.484;2024-01-07T03:16:51;5.50;99.90
12948;DHT22;6539;49.476;8.484;2024-01-07T03:19:40;5.40;99.90
12948;DHT22;6539;49.476;8.484;2024-01-07T03:22:26;5.40;99.90
12948;DHT22;6539;49.476;8.484;2024-01-07T03:25:12;5.40;99.90
12948;DHT22;6539;49.476;8.484;2024-01-07T03:27:58;5.40;99.90
12948;DHT22;6539;49.476;8.484;2024-01-07T03:30:47;5.40;99.90
12948;DHT22;6539;49.476;8.484;2024-01-07T03:33:33;5.40;99.90
12948;DHT22;6539;49.476;8.484;2024-01-07T03:36:19;5.40;99.90
12948;DHT22;6539;49.476;8.484;2024-01-07T03:39:08;5.50;99.90
12948;DHT22;6539;49.476;8.484;2024-01-07T03:41:59;5.50;99.90
12948;DHT22;6539;49.476;8.484;2024-01-07T03:44:50;5.40;99.90
12948;DHT22;6539;49.476;8.484;2024-01-07T03:47:39;5.40;99.90
12948;DHT22;6539;49.476;8.484;2024-01-07T03:50:27;5.40;99.90
12948;DHT22;6539;49.476;8.484;2024-01-07T03:53:16;5.40;99.90
12948;DHT22;6539;49.476;8.484;2024-01-07T03:56:02;5.40;99.90
12948;DHT22;6539;49.476;8.484;2024-01-07T03:58:48;5.40;99.90
12948;DHT22;6539;49.476;8.484;2024-01-07T04:01:39;5.40;99.90
12948;DHT22;6539;49.476;8.484;2024-01-07T04:04:28;5.40;99.90
12948;DHT22;6539;49.476;8.484;2024-01-07T04:07:16;5.40;99.90
12948;DHT22;6539;49.476;8.484;2024-01-07T04:10:05;5.40;99.90
12948;DHT22;6539;49.476;8.484;2024-01-07T04:12:54;5.40;99.90
12948;DHT22;6539;49.476;8.484;2024-01-07T04:15:40;5.40;99.90
12948;DHT22;6539;49.476;8.484;2024-01-07T04:18:28;5.40;99.90
12948;DHT22;6539;49.476;8.484;2024-01-07T04:21:16;5.40;99.90
12948;DHT22;6539;49.476;8.484;2024-01-07T04:24:06;5.40;99.90
12948;DHT22;6539;49.476;8.484;2024-01-07T04:26:52;5.50;99.90
12948;DHT22;6539;49.476;8.484;2024-01-07T04:29:38;5.50;99.90
12948;DHT22;6539;49.476;8.484;2024-01-07T04:32:26;5.50;99.90
12948;DHT22;6539;49.476;8.484;2024-01-07T04:35:13;5.50;99.90
12948;DHT22;6539;49.476;8.484;2024-01-07T04:37:59;5.50;99.90
12948;DHT22;6539;49.476;8.484;2024-01-07T04:40:45;5.60;99.90
12948;DHT22;6539;49.476;8.484;2024-01-07T04:43:31;5.50;99.90
12948;DHT22;6539;49.476;8.484;2024-01-07T04:46:18;5.60;99.90
12948;DHT22;6539;49.476;8.484;2024-01-07T04:49:06;5.50;99.90
12948;DHT22;6539;49.476;8.484;2024-01-07T04:51:52;5.50;99.90
12948;DHT22;6539;49.476;8.484;2024-01-07T04:54:38;5.50;99.90
12948;DHT22;6539;49.476;8.484;2024-01-07T04:57:24;5.50;99.90
12948;DHT22;6539;49.476;8.484;2024-01-07T05:00:11;5.50;99.90
12948;DHT22;6539;49.476;8.484;2024-01-07T05:02:58;5.50;99.90
12948;DHT22;6539;49.476;8.484;2024-01-07T05:05:46;5.40;99.90
12948;DHT22;6539;49.476;8.484;2024-01-07T05:08:32;5.50;99.90
12948;DHT22;6539;49.476;8.484;2024-01-07T05:11:18;5.50;99.90
12948;DHT22;6539;49.476;8.484;2024-01-07T05:14:04;5.50;99.90
12948;DHT22;6539;49.476;8.484;2024-01-07T05:16:53;5.50;99.90
12948;DHT22;6539;49.476;8.484;2024-01-07T05:19:41;5.40;99.90
12948;DHT22;6539;49.476;8.484;2024-01-07T05:22:27;5.40;99.90
12948;DHT22;6539;49.476;8.484;2024-01-07T05:25:13;5.40;99.90
12948;DHT22;6539;49.476;8.484;2024-01-07T05:27:59;5.40;99.90
12948;DHT22;6539;49.476;8.484;2024-01-07T05:30:45;5.40;99.90
12948;DHT22;6539;49.476;8.484;2024-01-07T05:33:33;5.40;99.90
12948;DHT22;6539;49.476;8.484;2024-01-07T05:36:19;5.30;99.90
12948;DHT22;6539;49.476;8.484;2024-01-07T05:39:06;5.40;99.90
12948;DHT22;6539;49.476;8.484;2024-01-07T05:41:54;5.40;99.90
12948;DHT22;6539;49.476;8.484;2024-01-07T05:44:42;5.40;99.90
12948;DHT22;6539;49.476;8.484;2024-01-07T05:47:31;5.40;99.90
12948;DHT22;6539;49.476;8.484;2024-01-07T05:50:17;5.40;99.90
12948;DHT22;6539;49.476;8.484;2024-01-07T05:53:04;5.40;99.90
12948;DHT22;6539;49.476;8.484;2024-01-07T05:55:50;5.30;99.90
12948;DHT22;6539;49.476;8.484;2024-01-07T05:58:36;5.40;99.90
12948;DHT22;6539;49.476;8.484;2024-01-07T06:01:23;5.40;99.90
12948;DHT22;6539;49.476;8.484;2024-01-07T06:04:09;5.50;99.90
12948;DHT22;6539;49.476;8.484;2024-01-07T06:06:55;5.50;99.90
12948;DHT22;6539;49.476;8.484;2024-01-07T06:09:41;5.40;99.90
12948;DHT22;6539;49.476;8.484;2024-01-07T06:12:31;5.50;99.90
12948;DHT22;6539;49.476;8.484;2024-01-07T06:15:17;5.40;99.90
12948;DHT22;6539;49.476;8.484;2024-01-07T06:18:06;5.40;99.90
12948;DHT22;6539;49.476;8.484;2024-01-07T06:20:59;5.40;99.90
12948;DHT22;6539;49.476;8.484;2024-01-07T06:23:47;5.30;99.90
12948;DHT22;6539;49.476;8.484;2024-01-07T06:26:36;5.40;99.90
12948;DHT22;6539;49.476;8.484;2024-01-07T06:29:26;5.50;99.90
12948;DHT22;6539;49.476;8.484;2024-01-07T06:32:15;5.50;99.90
12948;DHT22;6539;49.476;8.484;2024-01-07T06:35:01;5.40;99.90
12948;DHT22;6539;49.476;8.484;2024-01-07T06:37:51;5.40;99.90
12948;DHT22;6539;49.476;8.484;2024-01-07T06:40:37;5.40;99.90
12948;DHT22;6539;49.476;8.484;2024-01-07T06:43:28;5.40;99.90
12948;DHT22;6539;49.476;8.484;2024-01-07T06:46:14;5.40;99.90
12948;DHT22;6539;49.476;8.484;2024-01-07T06:49:04;5.30;99.90
12948;DHT22;6539;49.476;8.484;2024-01-07T06:51:50;5.30;99.90
12948;DHT22;6539;49.476;8.484;2024-01-07T06:54:38;5.30;99.90
12948;DHT22;6539;49.476;8.484;2024-01-07T06:57:29;5.30;99.90
12948;DHT22;6539;49.476;8.484;2024-01-07T07:00:16;5.30;99.90
12948;DHT22;6539;49.476;8.484;2024-01-07T07:03:03;5.40;99.90
12948;DHT22;6539;49.476;8.484;2024-01-07T07:05:50;5.40;99.90
12948;DHT22;6539;49.476;8.484;2024-01-07T07:08:39;5.40;99.90
12948;DHT22;6539;49.476;8.484;2024-01-07T07:11:26;5.40;99.90
12948;DHT22;6539;49.476;8.484;2024-01-07T07:14:12;5.40;99.90
12948;DHT22;6539;49.476;8.484;2024-01-07T07:17:00;5.40;99.90
12948;DHT22;6539;49.476;8.484;2024-01-07T07:19:46;5.40;99.90
12948;DHT22;6539;49.476;8.484;2024-01-07T07:22:35;5.40;99.90
12948;DHT22;6539;49.476;8.484;2024-01-07T07:25:24;5.40;99.90
12948;DHT22;6539;49.476;8.484;2024-01-07T07:28:10;5.30;99.90
12948;DHT22;6539;49.476;8.484;2024-01-07T07:30:56;5.30;99.90
12948;DHT22;6539;49.476;8.484;2024-01-07T07:33:44;5.40;99.90
12948;DHT22;6539;49.476;8.484;2024-01-07T07:36:30;5.40;99.90
12948;DHT22;6539;49.476;8.484;2024-01-07T07:39:16;5.40;99.90
12948;DHT22;6539;49.476;8.484;2024-01-07T07:42:03;5.40;99.90
12948;DHT22;6539;49.476;8.484;2024-01-07T07:44:49;5.40;99.90
12948;DHT22;6539;49.476;8.484;2024-01-07T07:47:35;5.40;99.90
12948;DHT22;6539;49.476;8.484;2024-01-07T07:50:27;5.40;99.90
12948;DHT22;6539;49.476;8.484;2024-01-07T07:53:13;5.40;99.90
12948;DHT22;6539;49.476;8.484;2024-01-07T07:56:02;5.40;99.90
12948;DHT22;6539;49.476;8.484;2024-01-07T07:58:51;5.40;99.90
12948;DHT22;6539;49.476;8.484;2024-01-07T08:01:37;5.30;99.90
12948;DHT22;6539;49.476;8.484;2024-01-07T08:04:23;5.40;99.90
12948;DHT22;6539;49.476;8.484;2024-01-07T08:07:12;5.40;99.90
12948;DHT22;6539;49.476;8.484;2024-01-07T08:09:58;5.40;99.90
12948;DHT22;6539;49.476;8.484;2024-01-07T08:12:46;5.40;99.90
12948;DHT22;6539;49.476;8.484;2024-01-07T08:15:32;5.30;99.90
12948;DHT22;6539;49.476;8.484;2024-01-07T08:18:23;5.40;99.90
12948;DHT22;6539;49.476;8.484;2024-01-07T08:21:09;5.40;99.90
12948;DHT22;6539;49.476;8.484;2024-01-07T08:23:58;5.40;99.90
12948;DHT22;6539;49.476;8.484;2024-01-07T08:26:44;5.40;99.90
12948;DHT22;6539;49.476;8.484;2024-01-07T08:29:30;5.40;99.90
12948;DHT22;6539;49.476;8.484;2024-01-07T08:32:17;5.40;99.90
12948;DHT22;6539;49.476;8.484;2024-01-07T08:35:11;5.40;99.90
12948;DHT22;6539;49.476;8.484;2024-01-07T08:37:57;5.40;99.90
12948;DHT22;6539;49.476;8.484;2024-01-07T08:40:43;5.40;99.90
12948;DHT22;6539;49.476;8.484;2024-01-07T08:43:32;5.40;99.90
12948;DHT22;6539;49.476;8.484;2024-01-07T08:46:21;5.40;99.90
12948;DHT22;6539;49.476;8.484;2024-01-07T08:49:07;5.40;99.90
12948;DHT22;6539;49.476;8.484;2024-01-07T08:51:53;5.40;99.90
12948;DHT22;6539;49.476;8.484;2024-01-07T08:54:44;5.40;99.90
12948;DHT22;6539;49.476;8.484;2024-01-07T08:57:30;5.40;99.90
12948;DHT22;6539;49.476;8.484;2024-01-07T09:00:18;5.30;99.90
12948;DHT22;6539;49.476;8.484;2024-01-07T09:03:05;5.40;99.90
12948;DHT22;6539;49.476;8.484;2024-01-07T09:05:54;5.40;99.90
12948;DHT22;6539;49.476;8.484;2024-01-07T09:08:40;5.40;99.90
12948;DHT22;6539;49.476;8.484;2024-01-07T09:11:28;5.40;99.90
12948;DHT22;6539;49.476;8.484;2024-01-07T09:14:18;5.40;99.90
12948;DHT22;6539;49.476;8.484;2024-01-07T09:17:07;5.40;99.90
12948;DHT22;6539;49.476;8.484;2024-01-07T09:19:53;5.30;99.90
12948;DHT22;6539;49.476;8.484;2024-01-07T09:22:39;5.30;99.90
12948;DHT22;6539;49.476;8.484;2024-01-07T09:25:25;5.30;99.90
12948;DHT22;6539;49.476;8.484;2024-01-07T09:28:17;5.30;99.90
12948;DHT22;6539;49.476;8.484;2024-01-07T09:31:06;5.30;99.90
12948;DHT22;6539;49.476;8.484;2024-01-07T09:33:52;5.40;99.90
12948;DHT22;6539;49.476;8.484;2024-01-07T09:36:41;5.40;99.90
12948;DHT22;6539;49.476;8.484;2024-01-07T09:39:27;5.40;99.90
12948;DHT22;6539;49.476;8.484;2024-01-07T09:42:16;5.50;99.90
12948;DHT22;6539;49.476;8.484;2024-01-07T09:45:03;5.60;99.90
12948;DHT22;6539;49.476;8.484;2024-01-07T09:47:52;5.50;99.90
12948;DHT22;6539;49.476;8.484;2024-01-07T09:50:44;5.60;99.90
12948;DHT22;6539;49.476;8.484;2024-01-07T09:53:31;5.60;99.90
12948;DHT22;6539;49.476;8.484;2024-01-07T09:56:28;5.60;99.90
12948;DHT22;6539;49.476;8.484;2024-01-07T09:59:28;5.60;99.90
12948;DHT22;6539;49.476;8.484;2024-01-07T10:02:18;5.60;99.90
12948;DHT22;6539;49.476;8.484;2024-01-07T10:05:08;5.60;99.90
12948;DHT22;6539;49.476;8.484;2024-01-07T10:07:57;5.60;99.90
12948;DHT22;6539;49.476;8.484;2024-01-07T10:10:44;5.60;99.90
12948;DHT22;6539;49.476;8.484;2024-01-07T10:13:32;5.60;99.90
12948;DHT22;6539;49.476;8.484;2024-01-07T10:16:18;5.60;99.90
12948;DHT22;6539;49.476;8.484;2024-01-07T10:19:04;5.60;99.90
12948;DHT22;6539;49.476;8.484;2024-01-07T10:24:52;5.60;99.90
12948;DHT22;6539;49.476;8.484;2024-01-07T10:27:38;5.80;99.90
12948;DHT22;6539;49.476;8.484;2024-01-07T10:30:24;5.70;99.90
12948;DHT22;6539;49.476;8.484;2024-01-07T10:33:11;5.70;99.90
12948;DHT22;6539;49.476;8.484;2024-01-07T10:36:02;5.60;99.90
12948;DHT22;6539;49.476;8.484;2024-01-07T10:38:53;5.60;99.90
12948;DHT22;6539;49.476;8.484;2024-01-07T10:41:45;5.70;99.90
12948;DHT22;6539;49.476;8.484;2024-01-07T10:44:33;5.60;99.90
12948;DHT22;6539;49.476;8.484;2024-01-07T10:47:22;5.70;99.90
12948;DHT22;6539;49.476;8.484;2024-01-07T10:50:16;5.60;99.90
12948;DHT22;6539;49.476;8.484;2024-01-07T10:53:04;5.70;99.90
12948;DHT22;6539;49.476;8.484;2024-01-07T10:55:57;5.70;99.90
12948;DHT22;6539;49.476;8.484;2024-01-07T10:58:56;5.70;99.90
12948;DHT22;6539;49.476;8.484;2024-01-07T11:01:42;5.80;99.90
12948;DHT22;6539;49.476;8.484;2024-01-07T11:04:54;5.90;99.90
12948;DHT22;6539;49.476;8.484;2024-01-07T11:11:06;5.90;99.90
12948;DHT22;6539;49.476;8.484;2024-01-07T11:14:00;6.00;99.90
12948;DHT22;6539;49.476;8.484;2024-01-07T11:16:49;6.00;99.90
12948;DHT22;6539;49.476;8.484;2024-01-07T11:19:51;6.10;99.90
12948;DHT22;6539;49.476;8.484;2024-01-07T11:22:38;5.90;99.90
12948;DHT22;6539;49.476;8.484;2024-01-07T11:25:31;5.90;99.90
12948;DHT22;6539;49.476;8.484;2024-01-07T11:28:18;5.80;99.90
12948;DHT22;6539;49.476;8.484;2024-01-07T11:31:06;5.80;99.90
12948;DHT22;6539;49.476;8.484;2024-01-07T11:33:55;5.80;99.90
12948;DHT22;6539;49.476;8.484;2024-01-07T11:36:41;5.80;99.90
12948;DHT22;6539;49.476;8.484;2024-01-07T11:39:29;5.70;99.90
12948;DHT22;6539;49.476;8.484;2024-01-07T11:42:21;5.90;99.90
12948;DHT22;6539;49.476;8.484;2024-01-07T11:45:10;6.00;99.90
12948;DHT22;6539;49.476;8.484;2024-01-07T11:47:59;5.90;99.90
12948;DHT22;6539;49.476;8.484;2024-01-07T11:50:45;5.90;99.90
12948;DHT22;6539;49.476;8.484;2024-01-07T11:53:31;5.90;99.90
12948;DHT22;6539;49.476;8.484;2024-01-07T11:56:17;5.80;99.90
12948;DHT22;6539;49.476;8.484;2024-01-07T11:59:06;5.80;99.90
12948;DHT22;6539;49.476;8.484;2024-01-07T12:01:54;6.00;99.90
12948;DHT22;6539;49.476;8.484;2024-01-07T12:04:41;5.80;99.90
12948;DHT22;6539;49.476;8.484;2024-01-07T12:07:27;5.80;99.90
12948;DHT22;6539;49.476;8.484;2024-01-07T12:10:15;5.80;99.90
12948;DHT22;6539;49.476;8.484;2024-01-07T12:13:03;5.80;99.90
12948;DHT22;6539;49.476;8.484;2024-01-07T12:15:52;5.70;99.90
12948;DHT22;6539;49.476;8.484;2024-01-07T12:18:39;5.60;99.90
12948;DHT22;6539;49.476;8.484;2024-01-07T12:21:32;5.40;99.90
12948;DHT22;6539;49.476;8.484;2024-01-07T12:24:24;5.20;99.90
12948;DHT22;6539;49.476;8.484;2024-01-07T12:27:11;5.10;99.90
12948;DHT22;6539;49.476;8.484;2024-01-07T12:30:01;5.10;99.90
12948;DHT22;6539;49.476;8.484;2024-01-07T12:32:52;5.00;99.90
12948;DHT22;6539;49.476;8.484;2024-01-07T12:35:38;4.90;99.90
12948;DHT22;6539;49.476;8.484;2024-01-07T12:38:29;4.90;99.90
12948;DHT22;6539;49.476;8.484;2024-01-07T12:41:15;5.00;99.90
12948;DHT22;6539;49.476;8.484;2024-01-07T12:44:04;5.00;99.90
12948;DHT22;6539;49.476;8.484;2024-01-07T12:46:51;4.90;99.90
12948;DHT22;6539;49.476;8.484;2024-01-07T12:49:39;4.90;99.90
12948;DHT22;6539;49.476;8.484;2024-01-07T12:52:29;4.80;99.90
12948;DHT22;6539;49.476;8.484;2024-01-07T12:55:15;4.80;99.90
12948;DHT22;6539;49.476;8.484;2024-01-07T12:58:06;4.80;99.90
12948;DHT22;6539;49.476;8.484;2024-01-07T13:00:53;4.80;99.90
12948;DHT22;6539;49.476;8.484;2024-01-07T13:03:40;4.70;99.90
12948;DHT22;6539;49.476;8.484;2024-01-07T13:06:26;4.70;99.90
12948;DHT22;6539;49.476;8.484;2024-01-07T13:09:17;4.70;99.90
12948;DHT22;6539;49.476;8.484;2024-01-07T13:12:04;4.70;99.90
12948;DHT22;6539;49.476;8.484;2024-01-07T13:14:50;4.70;99.90
12948;DHT22;6539;49.476;8.484;2024-01-07T13:17:37;4.70;99.90
12948;DHT22;6539;49.476;8.484;2024-01-07T13:20:23;4.60;99.90
12948;DHT22;6539;49.476;8.484;2024-01-07T13:23:11;4.60;99.90
12948;DHT22;6539;49.476;8.484;2024-01-07T13:25:57;4.50;99.90
12948;DHT22;6539;49.476;8.484;2024-01-07T13:28:43;4.50;99.90
12948;DHT22;6539;49.476;8.484;2024-01-07T13:31:32;4.50;99.90
12948;DHT22;6539;49.476;8.484;2024-01-07T13:34:18;4.60;99.90
12948;DHT22;6539;49.476;8.484;2024-01-07T13:37:07;4.50;99.90
12948;DHT22;6539;49.476;8.484;2024-01-07T13:39:58;4.40;99.90
12948;DHT22;6539;49.476;8.484;2024-01-07T13:42:44;4.40;99.90
12948;DHT22;6539;49.476;8.484;2024-01-07T13:45:30;4.40;99.90
12948;DHT22;6539;49.476;8.484;2024-01-07T13:48:16;4.30;99.90
12948;DHT22;6539;49.476;8.484;2024-01-07T13:51:05;4.30;99.90
12948;DHT22;6539;49.476;8.484;2024-01-07T13:53:53;4.20;99.90
12948;DHT22;6539;49.476;8.484;2024-01-07T13:56:42;4.10;99.90
12948;DHT22;6539;49.476;8.484;2024-01-07T13:59:31;4.10;99.90
12948;DHT22;6539;49.476;8.484;2024-01-07T14:02:23;4.10;99.90
12948;DHT22;6539;49.476;8.484;2024-01-07T14:05:15;4.10;99.90
12948;DHT22;6539;49.476;8.484;2024-01-07T14:08:04;4.10;99.90
12948;DHT22;6539;49.476;8.484;2024-01-07T14:10:54;4.00;99.90
12948;DHT22;6539;49.476;8.484;2024-01-07T14:13:40;4.00;99.90
12948;DHT22;6539;49.476;8.484;2024-01-07T14:16:26;4.10;99.90
12948;DHT22;6539;49.476;8.484;2024-01-07T14:19:13;4.10;99.90
12948;DHT22;6539;49.476;8.484;2024-01-07T14:22:02;4.10;99.90
12948;DHT22;6539;49.476;8.484;2024-01-07T14:24:49;4.10;99.90
12948;DHT22;6539;49.476;8.484;2024-01-07T14:27:35;4.00;99.90
12948;DHT22;6539;49.476;8.484;2024-01-07T14:30:21;4.00;99.90
12948;DHT22;6539;49.476;8.484;2024-01-07T14:33:08;4.00;99.90
12948;DHT22;6539;49.476;8.484;2024-01-07T14:35:57;4.00;99.90
12948;DHT22;6539;49.476;8.484;2024-01-07T14:38:44;4.00;99.90
12948;DHT22;6539;49.476;8.484;2024-01-07T14:41:31;4.00;99.90
12948;DHT22;6539;49.476;8.484;2024-01-07T14:44:20;3.90;99.90
12948;DHT22;6539;49.476;8.484;2024-01-07T14:47:11;3.80;99.90
12948;DHT22;6539;49.476;8.484;2024-01-07T14:50:01;3.90;99.90
12948;DHT22;6539;49.476;8.484;2024-01-07T14:52:48;4.00;99.90
12948;DHT22;6539;49.476;8.484;2024-01-07T14:55:35;3.90;99.90
12948;DHT22;6539;49.476;8.484;2024-01-07T14:58:24;3.90;99.90
12948;DHT22;6539;49.476;8.484;2024-01-07T15:01:13;3.80;99.90
12948;DHT22;6539;49.476;8.484;2024-01-07T15:04:00;3.70;99.90
12948;DHT22;6539;49.476;8.484;2024-01-07T15:06:46;3.70;99.90
12948;DHT22;6539;49.476;8.484;2024-01-07T15:09:38;3.70;99.90
12948;DHT22;6539;49.476;8.484;2024-01-07T15:12:29;3.70;99.90
12948;DHT22;6539;49.476;8.484;2024-01-07T15:15:21;3.80;99.90
12948;DHT22;6539;49.476;8.484;2024-01-07T15:18:08;3.70;99.90
12948;DHT22;6539;49.476;8.484;2024-01-07T15:20:54;3.70;99.90
12948;DHT22;6539;49.476;8.484;2024-01-07T15:23:40;3.60;99.90
12948;DHT22;6539;49.476;8.484;2024-01-07T15:26:28;3.60;99.90
12948;DHT22;6539;49.476;8.484;2024-01-07T15:29:22;3.50;99.90
12948;DHT22;6539;49.476;8.484;2024-01-07T15:32:08;3.40;99.90
12948;DHT22;6539;49.476;8.484;2024-01-07T15:34:58;3.30;99.90
12948;DHT22;6539;49.476;8.484;2024-01-07T15:37:45;3.30;99.90
12948;DHT22;6539;49.476;8.484;2024-01-07T15:40:34;3.30;99.90
12948;DHT22;6539;49.476;8.484;2024-01-07T15:43:20;3.30;99.90
12948;DHT22;6539;49.476;8.484;2024-01-07T15:46:06;3.20;99.90
12948;DHT22;6539;49.476;8.484;2024-01-07T15:48:52;3.10;99.90
12948;DHT22;6539;49.476;8.484;2024-01-07T15:51:43;3.10;99.90
12948;DHT22;6539;49.476;8.484;2024-01-07T15:54:30;3.20;99.90
12948;DHT22;6539;49.476;8.484;2024-01-07T15:57:16;3.10;99.90
12948;DHT22;6539;49.476;8.484;2024-01-07T16:00:02;3.00;99.90
12948;DHT22;6539;49.476;8.484;2024-01-07T16:02:49;2.90;99.90
12948;DHT22;6539;49.476;8.484;2024-01-07T16:05:35;3.00;99.90
12948;DHT22;6539;49.476;8.484;2024-01-07T16:08:22;3.00;99.90
12948;DHT22;6539;49.476;8.484;2024-01-07T16:11:11;2.90;99.90
12948;DHT22;6539;49.476;8.484;2024-01-07T16:14:02;2.90;99.90
12948;DHT22;6539;49.476;8.484;2024-01-07T16:16:51;2.70;99.90
12948;DHT22;6539;49.476;8.484;2024-01-07T16:19:37;2.60;99.90
12948;DHT22;6539;49.476;8.484;2024-01-07T16:22:26;2.60;99.90
12948;DHT22;6539;49.476;8.484;2024-01-07T16:25:12;2.60;99.90
12948;DHT22;6539;49.476;8.484;2024-01-07T16:27:58;2.60;99.90
12948;DHT22;6539;49.476;8.484;2024-01-07T16:30:47;2.40;99.90
12948;DHT22;6539;49.476;8.484;2024-01-07T16:33:35;2.40;99.90
12948;DHT22;6539;49.476;8.484;2024-01-07T16:36:21;2.40;99.90
12948;DHT22;6539;49.476;8.484;2024-01-07T16:39:07;2.20;99.90
12948;DHT22;6539;49.476;8.484;2024-01-07T16:41:53;2.20;99.90
12948;DHT22;6539;49.476;8.484;2024-01-07T16:44:40;2.20;99.90
12948;DHT22;6539;49.476;8.484;2024-01-07T16:47:27;2.30;99.90
12948;DHT22;6539;49.476;8.484;2024-01-07T16:50:13;2.30;99.90
12948;DHT22;6539;49.476;8.484;2024-01-07T16:52:59;2.20;99.90
12948;DHT22;6539;49.476;8.484;2024-01-07T16:55:45;2.20;99.90
12948;DHT22;6539;49.476;8.484;2024-01-07T16:58:32;2.20;99.90
12948;DHT22;6539;49.476;8.484;2024-01-07T17:01:20;2.10;99.90
12948;DHT22;6539;49.476;8.484;2024-01-07T17:04:11;2.10;99.90
12948;DHT22;6539;49.476;8.484;2024-01-07T17:06:57;2.20;99.90
12948;DHT22;6539;49.476;8.484;2024-01-07T17:09:43;2.20;99.90
12948;DHT22;6539;49.476;8.484;2024-01-07T17:12:29;2.20;99.90
12948;DHT22;6539;49.476;8.484;2024-01-07T17:15:15;2.20;99.90
12948;DHT22;6539;49.476;8.484;2024-01-07T17:18:01;2.20;99.90
12948;DHT22;6539;49.476;8.484;2024-01-07T17:20:53;2.10;99.90
12948;DHT22;6539;49.476;8.484;2024-01-07T17:23:39;2.00;99.90
12948;DHT22;6539;49.476;8.484;2024-01-07T17:26:25;1.90;99.90
12948;DHT22;6539;49.476;8.484;2024-01-07T17:29:11;1.90;99.90
12948;DHT22;6539;49.476;8.484;2024-01-07T17:32:00;1.80;99.90
12948;DHT22;6539;49.476;8.484;2024-01-07T17:34:49;1.70;99.90
12948;DHT22;6539;49.476;8.484;2024-01-07T17:37:38;1.80;99.90
12948;DHT22;6539;49.476;8.484;2024-01-07T17:40:26;1.80;99.90
12948;DHT22;6539;49.476;8.484;2024-01-07T17:43:12;1.70;99.90
12948;DHT22;6539;49.476;8.484;2024-01-07T17:45:58;1.70;99.90
12948;DHT22;6539;49.476;8.484;2024-01-07T17:48:46;1.60;99.90
12948;DHT22;6539;49.476;8.484;2024-01-07T17:51:32;1.70;99.90
12948;DHT22;6539;49.476;8.484;2024-01-07T17:54:18;1.60;99.90
12948;DHT22;6539;49.476;8.484;2024-01-07T17:57:04;1.60;99.90
12948;DHT22;6539;49.476;8.484;2024-01-07T17:59:50;1.60;99.90
12948;DHT22;6539;49.476;8.484;2024-01-07T18:02:39;1.60;99.90
12948;DHT22;6539;49.476;8.484;2024-01-07T18:05:26;1.60;99.90
12948;DHT22;6539;49.476;8.484;2024-01-07T18:08:15;1.60;99.90
12948;DHT22;6539;49.476;8.484;2024-01-07T18:11:05;1.60;99.90
12948;DHT22;6539;49.476;8.484;2024-01-07T18:13:51;1.50;99.90
12948;DHT22;6539;49.476;8.484;2024-01-07T18:16:38;1.50;99.90
12948;DHT22;6539;49.476;8.484;2024-01-07T18:19:27;1.50;99.90
12948;DHT22;6539;49.476;8.484;2024-01-07T18:22:13;1.50;99.90